createdAt,value
2022-12-16T00:08:50.283Z,98599.28
2022-12-16T00:18:53.410Z,98612.84
2022-12-16T00:28:54.983Z,98601.78
2022-12-16T00:38:56.453Z,98599.09
2022-12-16T00:48:57.892Z,98598.03
2022-12-16T00:58:59.416Z,98584.88
2022-12-16T01:09:00.847Z,98599.47
2022-12-16T01:19:02.633Z,98600.28
2022-12-16T01:29:04.040Z,98598.03
2022-12-16T01:39:05.562Z,98613.84
2022-12-16T01:49:10.256Z,98626.41
2022-12-16T01:59:12.384Z,98628.44
2022-12-16T02:09:14.030Z,98618.56
2022-12-16T02:19:37.345Z,98639.78
2022-12-16T02:30:06.586Z,98629.25
2022-12-16T02:40:16.357Z,98640.78
2022-12-16T02:50:21.010Z,98633.16
2022-12-16T03:00:24.590Z,98634.59
2022-12-16T03:10:29.245Z,98639.56
2022-12-16T03:20:34.941Z,98647.97
2022-12-16T03:30:36.728Z,98656.25
2022-12-16T03:40:38.561Z,98652.56
2022-12-16T03:50:40.008Z,98655.41
2022-12-16T04:00:41.427Z,98669.41
2022-12-16T04:11:01.250Z,98658.72
2022-12-16T04:21:20.976Z,98678.06
2022-12-16T04:31:22.521Z,98678.25
2022-12-16T04:41:43.721Z,98683.00
2022-12-16T04:52:03.910Z,98692.03
2022-12-16T05:02:23.763Z,98705.41
2022-12-16T05:12:43.988Z,98710.91
2022-12-16T05:23:03.825Z,98722.31
2022-12-16T05:33:23.491Z,98716.75
2022-12-16T05:43:43.196Z,98728.72
2022-12-16T05:54:10.739Z,98744.56
2022-12-16T06:04:30.443Z,98747.06
2022-12-16T06:14:50.186Z,98768.69
2022-12-16T06:25:10.182Z,98781.69
2022-12-16T06:35:30.098Z,98805.78
2022-12-16T06:45:49.884Z,98816.28
2022-12-16T06:56:10.095Z,98829.06
2022-12-16T07:06:30.049Z,98848.00
2022-12-16T07:16:49.866Z,98871.22
2022-12-16T07:27:09.972Z,98895.94
2022-12-16T07:37:43.713Z,98919.63
2022-12-16T07:48:09.646Z,98937.34
2022-12-16T07:58:29.487Z,98940.91
2022-12-16T08:08:49.482Z,98946.06
2022-12-16T08:19:11.375Z,98961.81
2022-12-16T08:29:47.136Z,98974.22
2022-12-16T08:50:47.101Z,98978.19
2022-12-16T09:01:08.134Z,98990.75
2022-12-16T09:11:30.009Z,99005.16
2022-12-16T09:21:50.117Z,99018.06
2022-12-16T09:32:10.204Z,99033.56
2022-12-16T09:42:55.514Z,99043.31
2022-12-16T09:53:18.441Z,99058.38
2022-12-16T10:03:42.871Z,99059.03
2022-12-16T10:14:19.430Z,99063.75
2022-12-16T10:24:39.676Z,99079.88
2022-12-16T10:34:59.356Z,99076.13
2022-12-16T10:45:20.226Z,99088.03
2022-12-16T10:55:52.464Z,99103.28
2022-12-16T11:06:13.115Z,99090.41
2022-12-16T11:16:41.181Z,99092.22
2022-12-16T11:27:11.367Z,99098.78
2022-12-16T11:37:38.337Z,99097.69
2022-12-16T11:48:03.166Z,99106.34
2022-12-16T11:59:00.947Z,99113.31
2022-12-16T12:09:40.403Z,99111.84
2022-12-16T12:20:15.079Z,99119.88
2022-12-16T12:30:37.321Z,99128.09
2022-12-16T12:40:59.752Z,99124.63
2022-12-16T12:51:33.488Z,99131.19
2022-12-16T13:01:53.255Z,99143.13
2022-12-16T13:12:25.521Z,99144.78
2022-12-16T13:22:53.096Z,99147.91
2022-12-16T13:33:14.277Z,99161.09
2022-12-16T13:44:00.540Z,99174.91
2022-12-16T13:54:20.619Z,99194.06
2022-12-16T14:04:44.745Z,99199.00
2022-12-16T14:15:11.230Z,99214.97
2022-12-16T14:25:33.064Z,99224.78
2022-12-16T14:36:12.640Z,99252.06
2022-12-16T14:46:49.301Z,99261.25
2022-12-16T14:57:29.126Z,99258.72
2022-12-16T15:07:52.295Z,99263.66
2022-12-16T15:18:15.444Z,99279.97
2022-12-16T15:28:43.781Z,99301.06
2022-12-16T15:39:03.631Z,99326.53
2022-12-16T15:49:23.652Z,99332.22
2022-12-16T16:00:11.684Z,99336.78
2022-12-16T16:10:39.832Z,99367.34
2022-12-16T16:21:00.081Z,99382.66
2022-12-16T16:31:20.445Z,99406.50
2022-12-16T16:41:40.635Z,99401.56
2022-12-16T16:52:00.271Z,99421.56
2022-12-16T17:02:20.663Z,99443.25
2022-12-16T17:12:46.091Z,99460.25
2022-12-16T17:23:06.047Z,99463.88
2022-12-16T17:33:25.808Z,99470.22
2022-12-16T17:43:45.588Z,99482.69
2022-12-16T17:54:14.579Z,99504.41
2022-12-16T18:04:37.441Z,99517.41
2022-12-16T18:14:57.233Z,99530.94
2022-12-16T18:25:17.252Z,99529.25
2022-12-16T18:35:36.980Z,99548.66
2022-12-16T18:46:13.731Z,99547.47
2022-12-16T18:56:33.516Z,99558.00
2022-12-16T19:06:53.307Z,99561.69
2022-12-16T19:17:13.345Z,99574.63
2022-12-16T19:27:33.151Z,99578.53
2022-12-16T19:37:53.769Z,99593.63
2022-12-16T19:48:24.129Z,99606.31
2022-12-16T19:58:44.131Z,99619.88
2022-12-16T20:09:04.076Z,99628.88
2022-12-16T20:19:23.870Z,99640.03
2022-12-16T20:29:44.025Z,99646.34
2022-12-16T20:40:03.795Z,99661.03
2022-12-16T20:50:24.172Z,99663.91
2022-12-16T21:00:44.112Z,99673.09
2022-12-16T21:11:04.217Z,99686.50
2022-12-16T21:21:24.563Z,99691.53
2022-12-16T21:31:44.464Z,99701.91
2022-12-16T21:42:20.952Z,99727.28
2022-12-16T21:52:40.747Z,99744.47
2022-12-16T22:03:03.212Z,99757.22
2022-12-16T22:13:23.294Z,99772.25
2022-12-16T22:23:49.122Z,99792.63
2022-12-16T22:34:09.295Z,99801.47
2022-12-16T22:44:29.434Z,99792.47
2022-12-16T22:54:49.691Z,99810.69
2022-12-16T23:05:09.610Z,99802.84
2022-12-16T23:15:30.458Z,99809.81
2022-12-16T23:25:50.345Z,99810.69
2022-12-16T23:36:09.954Z,99816.72
2022-12-16T23:46:30.034Z,99827.22
2022-12-16T23:56:50.556Z,99840.59
